createdAt,value
2018-05-17T00:01:50.942Z,6.20
2018-05-17T00:04:18.455Z,4.50
2018-05-17T00:06:45.960Z,4.75
2018-05-17T00:09:13.490Z,4.17
2018-05-17T00:11:40.992Z,5.00
2018-05-17T00:14:08.582Z,4.70
2018-05-17T00:16:36.965Z,4.43
2018-05-17T00:19:04.476Z,4.82
2018-05-17T00:21:31.962Z,4.90
2018-05-17T00:23:59.535Z,4.72
2018-05-17T00:26:27.798Z,4.40
2018-05-17T00:28:56.107Z,4.50
2018-05-17T00:31:23.607Z,4.22
2018-05-17T00:33:51.098Z,4.73
2018-05-17T00:36:19.366Z,4.35
2018-05-17T00:38:47.632Z,4.00
2018-05-17T00:41:15.132Z,5.60
2018-05-17T00:43:42.641Z,5.05
2018-05-17T00:46:10.149Z,5.15
2018-05-17T00:48:37.643Z,4.05
2018-05-17T00:51:05.147Z,4.17
2018-05-17T00:53:32.652Z,3.53
2018-05-17T00:56:00.147Z,4.50
2018-05-17T00:58:28.423Z,3.90
2018-05-17T01:00:56.687Z,5.10
2018-05-17T01:03:24.192Z,5.15
2018-05-17T01:05:51.726Z,5.12
2018-05-17T01:08:19.999Z,4.87
2018-05-17T01:10:48.252Z,5.05
2018-05-17T01:13:15.750Z,5.47
2018-05-17T01:15:43.307Z,4.72
2018-05-17T01:18:10.806Z,5.20
2018-05-17T01:20:38.318Z,4.65
2018-05-17T01:23:05.813Z,4.10
2018-05-17T01:25:33.315Z,4.47
2018-05-17T01:28:01.598Z,4.53
2018-05-17T01:30:29.872Z,5.28
2018-05-17T01:32:58.132Z,4.35
2018-05-17T01:35:25.623Z,4.50
2018-05-17T01:38:05.243Z,4.30
2018-05-17T01:40:33.505Z,5.15
2018-05-17T01:43:01.008Z,4.60
2018-05-17T01:45:28.498Z,4.57
2018-05-17T01:47:55.994Z,5.15
2018-05-17T01:50:24.254Z,5.50
2018-05-17T01:52:51.768Z,4.70
2018-05-17T01:55:19.282Z,5.30
2018-05-17T01:57:47.559Z,5.40
2018-05-17T02:00:15.859Z,4.45
2018-05-17T02:02:43.353Z,5.00
2018-05-17T02:05:10.892Z,5.07
2018-05-17T02:07:38.423Z,4.60
2018-05-17T02:10:06.674Z,4.80
2018-05-17T02:12:34.187Z,5.12
2018-05-17T02:15:01.684Z,4.78
2018-05-17T02:17:29.180Z,5.07
2018-05-17T02:19:56.695Z,4.70
2018-05-17T02:22:24.202Z,4.68
2018-05-17T02:24:52.547Z,5.40
2018-05-17T02:27:20.046Z,5.82
2018-05-17T02:29:47.577Z,5.12
2018-05-17T02:32:15.844Z,5.57
2018-05-17T02:34:44.120Z,4.57
2018-05-17T02:37:11.623Z,4.87
2018-05-17T02:39:39.133Z,4.65
2018-05-17T02:42:06.648Z,5.50
2018-05-17T02:44:34.157Z,4.70
2018-05-17T02:47:02.450Z,5.60
2018-05-17T02:49:29.942Z,4.93
2018-05-17T02:51:57.431Z,5.70
2018-05-17T02:54:25.809Z,5.97
2018-05-17T02:56:54.003Z,5.62
2018-05-17T02:59:22.267Z,5.10
2018-05-17T03:01:49.770Z,5.30
2018-05-17T03:04:17.294Z,4.97
2018-05-17T03:06:45.550Z,6.00
2018-05-17T03:09:13.055Z,5.18
2018-05-17T03:11:40.551Z,5.70
2018-05-17T03:14:08.064Z,4.90
2018-05-17T03:16:35.567Z,5.10
2018-05-17T03:19:03.072Z,5.90
2018-05-17T03:21:30.651Z,5.05
2018-05-17T03:23:58.874Z,5.63
2018-05-17T03:26:26.478Z,5.72
2018-05-17T03:28:53.992Z,5.22
2018-05-17T03:31:21.485Z,5.17
2018-05-17T03:33:48.975Z,5.40
2018-05-17T03:36:16.474Z,5.20
2018-05-17T03:38:43.962Z,5.12
2018-05-17T03:41:11.463Z,5.72
2018-05-17T03:43:38.973Z,5.70
2018-05-17T03:46:06.487Z,5.40
2018-05-17T03:48:33.995Z,5.95
2018-05-17T03:51:01.485Z,6.03
2018-05-17T03:53:28.999Z,5.40
2018-05-17T03:55:57.252Z,5.45
2018-05-17T03:58:24.759Z,5.55
2018-05-17T04:01:04.180Z,5.53
2018-05-17T04:03:43.783Z,6.47
2018-05-17T04:06:23.115Z,6.20
2018-05-17T04:08:50.606Z,5.35
2018-05-17T04:11:18.891Z,6.35
2018-05-17T04:13:46.484Z,6.50
2018-05-17T04:16:13.975Z,6.22
2018-05-17T04:18:41.479Z,6.60
2018-05-17T04:21:08.978Z,6.20
2018-05-17T04:23:36.587Z,6.05
2018-05-17T04:26:04.096Z,6.50
2018-05-17T04:28:31.711Z,5.80
2018-05-17T04:30:59.222Z,6.07
2018-05-17T04:33:26.734Z,6.32
2018-05-17T04:35:54.230Z,6.27
2018-05-17T04:38:21.835Z,6.20
2018-05-17T04:40:49.347Z,6.90
2018-05-17T04:43:16.855Z,6.32
2018-05-17T04:45:44.347Z,5.62
2018-05-17T04:48:11.855Z,5.53
2018-05-17T04:50:40.122Z,5.95
2018-05-17T04:53:08.402Z,6.15
2018-05-17T04:55:36.670Z,6.00
2018-05-17T04:58:04.263Z,5.90
2018-05-17T05:00:31.759Z,6.33
2018-05-17T05:02:59.367Z,6.12
2018-05-17T05:05:26.794Z,6.10
2018-05-17T05:07:55.052Z,5.47
2018-05-17T05:10:22.564Z,6.32
2018-05-17T05:12:50.061Z,6.30
2018-05-17T05:15:17.561Z,5.12
2018-05-17T05:17:45.824Z,4.93
2018-05-17T05:20:13.332Z,5.07
2018-05-17T05:22:40.818Z,5.60
2018-05-17T05:25:08.323Z,5.45
2018-05-17T05:27:36.586Z,4.32
2018-05-17T05:30:04.867Z,5.78
2018-05-17T05:32:33.166Z,5.60
2018-05-17T05:35:00.659Z,4.60
2018-05-17T05:37:28.219Z,4.93
2018-05-17T05:39:55.735Z,4.70
2018-05-17T05:42:23.290Z,4.72
2018-05-17T05:44:51.552Z,4.00
2018-05-17T05:47:19.815Z,4.60
2018-05-17T05:49:47.334Z,4.15
2018-05-17T05:52:14.826Z,4.65
2018-05-17T05:54:42.324Z,5.30
2018-05-17T05:57:09.824Z,4.90
2018-05-17T05:59:37.336Z,5.10
2018-05-17T06:02:04.831Z,5.55
2018-05-17T06:04:32.323Z,4.97
2018-05-17T06:06:59.833Z,4.97
2018-05-17T06:09:27.367Z,5.22
2018-05-17T06:11:54.874Z,5.43
2018-05-17T06:14:22.365Z,4.80
2018-05-17T06:16:50.634Z,4.70
2018-05-17T06:19:18.890Z,4.50
2018-05-17T06:21:46.487Z,4.70
2018-05-17T06:24:14.759Z,4.47
2018-05-17T06:26:43.016Z,5.45
2018-05-17T06:29:11.308Z,6.20
2018-05-17T06:31:39.578Z,5.12
2018-05-17T06:34:07.858Z,4.80
2018-05-17T06:36:36.137Z,4.40
2018-05-17T06:39:07.327Z,4.45
2018-05-17T06:41:34.826Z,5.10
2018-05-17T06:44:02.444Z,4.70
2018-05-17T06:46:29.967Z,5.65
2018-05-17T06:48:57.472Z,5.32
2018-05-17T06:51:24.979Z,5.55
2018-05-17T06:53:53.257Z,4.60
2018-05-17T06:56:20.754Z,4.82
2018-05-17T06:58:48.279Z,4.27
2018-05-17T07:01:15.820Z,4.90
2018-05-17T07:03:43.401Z,4.70
2018-05-17T07:06:10.938Z,5.00
2018-05-17T07:08:39.202Z,5.18
2018-05-17T07:11:06.706Z,5.03
2018-05-17T07:13:34.247Z,5.32
2018-05-17T07:16:01.807Z,4.83
2018-05-17T07:18:29.426Z,4.30
2018-05-17T07:20:56.833Z,4.97
2018-05-17T07:23:24.342Z,5.10
2018-05-17T07:25:51.857Z,5.55
2018-05-17T07:28:19.366Z,5.12
2018-05-17T07:30:46.963Z,5.10
2018-05-17T07:33:15.228Z,5.15
2018-05-17T07:35:42.808Z,4.37
2018-05-17T07:38:10.323Z,4.30
2018-05-17T07:40:38.597Z,4.30
2018-05-17T07:43:06.090Z,4.43
2018-05-17T07:45:33.603Z,5.50
2018-05-17T07:48:01.200Z,4.68
2018-05-17T07:50:29.580Z,4.70
2018-05-17T07:52:57.837Z,5.27
2018-05-17T07:55:26.103Z,5.50
2018-05-17T07:57:53.630Z,4.40
2018-05-17T08:00:21.135Z,4.60
2018-05-17T08:02:49.406Z,4.45
2018-05-17T08:05:17.688Z,4.22
2018-05-17T08:07:45.959Z,4.55
2018-05-17T08:10:14.239Z,4.87
2018-05-17T08:12:42.511Z,5.40
2018-05-17T08:15:10.769Z,5.70
2018-05-17T08:17:38.273Z,6.03
2018-05-17T08:20:05.804Z,5.50
2018-05-17T08:22:34.066Z,5.15
2018-05-17T08:25:01.559Z,4.93
2018-05-17T08:27:29.073Z,6.80
2018-05-17T08:29:57.398Z,4.70
2018-05-17T08:32:24.895Z,4.80
2018-05-17T08:34:52.403Z,5.62
2018-05-17T08:37:19.923Z,5.55
2018-05-17T08:39:47.442Z,5.60
2018-05-17T08:42:14.935Z,4.90
2018-05-17T08:44:42.442Z,4.90
2018-05-17T08:47:09.948Z,5.47
2018-05-17T08:49:37.443Z,5.07
2018-05-17T08:52:05.730Z,5.43
2018-05-17T08:54:33.283Z,4.82
2018-05-17T08:57:00.787Z,4.65
2018-05-17T08:59:28.275Z,5.80
2018-05-17T09:01:55.780Z,4.33
2018-05-17T09:04:23.290Z,5.10
2018-05-17T09:06:50.803Z,4.85
2018-05-17T09:09:18.308Z,4.85
2018-05-17T09:11:45.893Z,5.90
2018-05-17T09:14:14.167Z,4.85
2018-05-17T09:16:42.427Z,4.70
2018-05-17T09:19:09.937Z,5.07
2018-05-17T09:21:37.459Z,5.20
2018-05-17T09:24:05.023Z,5.10
2018-05-17T09:26:33.298Z,5.20
2018-05-17T09:29:01.572Z,4.90
2018-05-17T09:31:29.848Z,4.80
2018-05-17T09:33:57.364Z,5.20
2018-05-17T09:36:24.873Z,5.43
2018-05-17T09:38:53.146Z,4.60
2018-05-17T09:41:20.713Z,5.32
2018-05-17T09:43:48.204Z,5.30
2018-05-17T09:46:15.722Z,5.40
2018-05-17T09:48:43.222Z,4.80
2018-05-17T09:51:10.735Z,5.13
2018-05-17T09:53:38.254Z,5.00
2018-05-17T09:56:05.750Z,5.70
2018-05-17T09:58:34.005Z,7.93
2018-05-17T10:01:01.520Z,5.70
2018-05-17T10:03:29.007Z,5.40
2018-05-17T10:05:56.508Z,5.53
2018-05-17T10:08:24.057Z,4.87
2018-05-17T10:10:51.570Z,5.57
2018-05-17T10:13:19.081Z,5.10
2018-05-17T10:15:47.352Z,6.10
2018-05-17T10:18:14.918Z,5.40
2018-05-17T10:20:42.470Z,4.90
2018-05-17T10:23:10.080Z,5.45
2018-05-17T10:25:37.579Z,5.90
2018-05-17T10:28:05.834Z,5.50
2018-05-17T10:30:33.336Z,5.80
2018-05-17T10:33:00.843Z,5.28
2018-05-17T10:35:28.337Z,5.67
2018-05-17T10:37:55.855Z,6.60
2018-05-17T10:40:24.119Z,6.25
2018-05-17T10:42:51.622Z,4.93
2018-05-17T10:45:19.942Z,6.03
2018-05-17T10:47:47.434Z,4.72
2018-05-17T10:50:14.967Z,5.23
2018-05-17T10:52:42.471Z,5.47
2018-05-17T10:55:10.739Z,5.20
2018-05-17T10:57:39.019Z,5.25
2018-05-17T11:00:07.295Z,5.70
2018-05-17T11:02:35.647Z,4.95
2018-05-17T11:05:03.099Z,6.20
2018-05-17T11:07:30.696Z,4.73
2018-05-17T11:09:58.963Z,5.85
2018-05-17T11:12:27.260Z,5.90
2018-05-17T11:14:54.779Z,5.35
2018-05-17T11:17:22.275Z,6.37
2018-05-17T11:19:49.767Z,5.53
2018-05-17T11:22:17.270Z,5.60
2018-05-17T11:24:45.566Z,5.32
2018-05-17T11:27:13.074Z,5.40
2018-05-17T11:29:40.575Z,5.20
2018-05-17T11:32:08.145Z,5.90
2018-05-17T11:34:35.636Z,8.35
2018-05-17T11:37:03.143Z,9.43
2018-05-17T11:39:31.456Z,6.97
2018-05-17T11:41:58.942Z,5.20
2018-05-17T11:44:26.440Z,6.00
2018-05-17T11:46:54.707Z,6.80
2018-05-17T11:49:23.031Z,6.62
2018-05-17T11:51:50.531Z,6.55
2018-05-17T11:54:18.036Z,5.70
2018-05-17T11:56:45.535Z,5.40
2018-05-17T11:59:13.035Z,7.80
2018-05-17T12:01:40.547Z,10.97
2018-05-17T12:04:08.062Z,14.80
2018-05-17T12:06:35.563Z,7.93
2018-05-17T12:09:03.058Z,6.30
2018-05-17T12:11:30.683Z,5.90
2018-05-17T12:13:58.191Z,5.18
2018-05-17T12:16:25.695Z,7.30
2018-05-17T12:18:53.196Z,5.75
2018-05-17T12:21:21.462Z,6.00
2018-05-17T12:23:49.731Z,7.13
2018-05-17T12:26:17.243Z,6.00
2018-05-17T12:28:44.752Z,6.95
2018-05-17T12:31:13.154Z,5.40
2018-05-17T12:33:40.648Z,5.85
2018-05-17T12:36:08.144Z,7.37
2018-05-17T12:38:36.419Z,9.87
2018-05-17T12:41:04.685Z,10.37
2018-05-17T12:43:32.194Z,7.70
2018-05-17T12:45:59.699Z,6.60
2018-05-17T12:48:39.518Z,5.82
2018-05-17T12:51:07.827Z,4.80
2018-05-17T12:53:36.098Z,5.13
2018-05-17T12:56:03.590Z,6.20
2018-05-17T12:58:31.091Z,5.30
2018-05-17T13:00:58.611Z,4.78
2018-05-17T13:03:26.115Z,4.93
2018-05-17T13:05:53.626Z,4.60
2018-05-17T13:08:21.127Z,4.80
2018-05-17T13:10:48.718Z,4.68
2018-05-17T13:13:16.151Z,4.72
2018-05-17T13:17:57.678Z,5.72
2018-05-17T13:20:25.956Z,5.55
2018-05-17T13:22:54.229Z,5.90
2018-05-17T13:25:22.508Z,6.10
2018-05-17T13:27:50.802Z,6.05
2018-05-17T13:30:18.374Z,5.00
2018-05-17T13:32:45.814Z,5.30
2018-05-17T13:35:14.083Z,5.50
2018-05-17T13:37:42.343Z,5.50
2018-05-17T13:40:10.621Z,5.00
2018-05-17T13:42:38.875Z,5.33
2018-05-17T13:45:06.376Z,5.30
2018-05-17T13:47:33.873Z,5.57
2018-05-17T13:50:01.383Z,5.30
2018-05-17T13:52:29.652Z,5.22
2018-05-17T13:54:57.922Z,5.00
2018-05-17T13:57:25.410Z,5.65
2018-05-17T13:59:52.913Z,5.30
2018-05-17T14:02:20.441Z,5.03
2018-05-17T14:04:47.962Z,5.70
2018-05-17T14:07:16.216Z,5.43
2018-05-17T14:09:43.855Z,5.68
2018-05-17T14:12:11.333Z,4.70
2018-05-17T14:14:38.924Z,5.10
2018-05-17T14:17:07.187Z,5.20
2018-05-17T14:19:35.476Z,5.43
2018-05-17T14:22:03.736Z,5.00
2018-05-17T14:24:32.000Z,4.83
2018-05-17T14:26:59.509Z,5.00
2018-05-17T14:29:27.027Z,4.90
2018-05-17T14:31:54.519Z,5.20
2018-05-17T14:34:22.007Z,5.20
2018-05-17T14:36:49.518Z,4.70
2018-05-17T14:39:17.090Z,4.97
2018-05-17T14:41:44.633Z,5.03
2018-05-17T14:44:12.904Z,5.18
2018-05-17T14:46:41.175Z,5.00
2018-05-17T14:49:09.455Z,4.70
2018-05-17T14:51:37.732Z,5.25
2018-05-17T14:54:06.018Z,4.78
2018-05-17T14:56:33.520Z,5.00
2018-05-17T14:59:01.044Z,4.30
2018-05-17T15:01:28.539Z,4.93
2018-05-17T15:03:56.037Z,4.85
2018-05-17T15:06:24.307Z,5.25
2018-05-17T15:08:52.640Z,4.82
2018-05-17T15:11:20.875Z,5.00
2018-05-17T15:13:48.392Z,4.93
2018-05-17T15:16:15.884Z,5.20
2018-05-17T15:18:44.174Z,4.90
2018-05-17T15:21:11.682Z,5.15
2018-05-17T15:23:39.178Z,5.00
2018-05-17T15:26:07.452Z,5.00
2018-05-17T15:28:35.708Z,4.50
2018-05-17T15:31:03.229Z,4.80
2018-05-17T15:33:30.738Z,5.00
2018-05-17T15:35:59.019Z,5.00
2018-05-17T15:38:27.319Z,4.93
2018-05-17T15:40:54.824Z,4.90
2018-05-17T15:43:22.322Z,5.15
2018-05-17T15:45:50.591Z,5.60
2018-05-17T15:48:18.957Z,5.10
2018-05-17T15:50:47.152Z,4.73
2018-05-17T15:53:15.427Z,4.60
2018-05-17T15:55:43.695Z,4.77
2018-05-17T15:58:11.966Z,5.10
2018-05-17T16:00:39.482Z,5.90
2018-05-17T16:03:06.972Z,4.90
2018-05-17T16:05:34.484Z,5.40
2018-05-17T16:08:01.999Z,5.05
2018-05-17T16:10:30.279Z,5.60
2018-05-17T16:12:58.584Z,5.07
2018-05-17T16:15:26.346Z,5.10
2018-05-17T16:17:53.600Z,5.00
2018-05-17T16:20:21.090Z,5.33
2018-05-17T16:22:48.599Z,5.75
2018-05-17T16:25:16.113Z,4.45
2018-05-17T16:27:43.715Z,5.65
2018-05-17T16:30:11.210Z,5.53
2018-05-17T16:32:38.723Z,5.68
2018-05-17T16:35:07.007Z,6.05
2018-05-17T16:37:35.274Z,5.55
2018-05-17T16:40:03.562Z,5.70
2018-05-17T16:42:31.070Z,5.30
2018-05-17T16:44:58.574Z,5.32
2018-05-17T16:47:26.075Z,5.90
2018-05-17T16:49:53.593Z,5.35
2018-05-17T16:52:21.086Z,5.18
2018-05-17T16:54:48.577Z,5.20
2018-05-17T16:57:16.077Z,5.63
2018-05-17T16:59:43.575Z,5.93
2018-05-17T17:02:11.085Z,5.93
2018-05-17T17:04:38.593Z,5.78
2018-05-17T17:07:06.198Z,5.10
2018-05-17T17:09:33.767Z,5.68
2018-05-17T17:12:01.315Z,5.30
2018-05-17T17:14:29.594Z,5.40
2018-05-17T17:16:57.091Z,5.60
2018-05-17T17:19:24.585Z,5.40
2018-05-17T17:21:52.094Z,4.90
2018-05-17T17:24:19.635Z,5.80
2018-05-17T17:26:47.148Z,6.00
2018-05-17T17:29:14.739Z,4.90
2018-05-17T17:31:43.008Z,5.12
2018-05-17T17:34:11.349Z,5.20
2018-05-17T17:36:39.634Z,6.20
2018-05-17T17:39:07.090Z,4.93
2018-05-17T17:41:34.583Z,4.72
2018-05-17T17:44:02.854Z,5.20
2018-05-17T17:46:31.138Z,5.00
2018-05-17T17:48:59.406Z,5.50
2018-05-17T17:51:27.663Z,5.40
2018-05-17T17:53:55.194Z,5.47
2018-05-17T17:56:22.690Z,5.10
2018-05-17T17:58:50.955Z,5.55
2018-05-17T18:01:18.460Z,4.78
2018-05-17T18:03:45.959Z,5.62
2018-05-17T18:06:13.472Z,6.10
2018-05-17T18:08:40.976Z,5.20
2018-05-17T18:11:08.472Z,4.80
2018-05-17T18:13:36.747Z,4.87
2018-05-17T18:16:05.011Z,5.28
2018-05-17T18:18:33.304Z,4.62
2018-05-17T18:21:00.802Z,5.43
2018-05-17T18:23:28.294Z,5.75
2018-05-17T18:25:55.809Z,5.67
2018-05-17T18:28:23.347Z,5.07
2018-05-17T18:30:50.893Z,5.30
2018-05-17T18:33:18.458Z,5.68
2018-05-17T18:35:46.732Z,4.97
2018-05-17T18:38:15.004Z,5.20
2018-05-17T18:40:42.511Z,4.50
2018-05-17T18:43:10.080Z,5.30
2018-05-17T18:45:37.527Z,5.80
2018-05-17T18:48:05.033Z,5.13
2018-05-17T18:50:33.326Z,5.07
2018-05-17T18:53:00.883Z,5.47
2018-05-17T18:55:28.394Z,4.70
2018-05-17T18:57:55.890Z,5.13
2018-05-17T19:00:24.346Z,5.43
2018-05-17T19:02:51.783Z,4.70
2018-05-17T19:05:19.274Z,4.90
2018-05-17T19:07:47.551Z,5.20
2018-05-17T19:10:15.817Z,4.93
2018-05-17T19:12:43.331Z,5.32
2018-05-17T19:15:10.839Z,4.45
2018-05-17T19:17:39.103Z,5.85
2018-05-17T19:20:06.603Z,5.10
2018-05-17T19:22:34.095Z,5.65
2018-05-17T19:25:01.608Z,5.20
2018-05-17T19:27:29.098Z,5.30
2018-05-17T19:29:56.599Z,6.67
2018-05-17T19:32:24.103Z,5.90
2018-05-17T19:34:51.618Z,5.40
2018-05-17T19:37:19.184Z,5.47
2018-05-17T19:39:46.670Z,5.68
2018-05-17T19:42:14.162Z,5.32
2018-05-17T19:44:41.667Z,6.05
2018-05-17T19:47:09.922Z,5.57
2018-05-17T19:49:37.450Z,5.70
2018-05-17T19:52:04.938Z,5.70
2018-05-17T19:54:32.527Z,6.00
2018-05-17T19:57:00.054Z,5.12
2018-05-17T19:59:27.644Z,5.68
2018-05-17T20:01:55.162Z,6.27
2018-05-17T20:04:23.435Z,5.12
2018-05-17T20:06:50.952Z,4.93
2018-05-17T20:09:18.455Z,5.55
2018-05-17T20:11:45.968Z,4.85
2018-05-17T20:14:13.479Z,5.80
2018-05-17T20:16:41.002Z,4.93
2018-05-17T20:19:08.524Z,5.55
2018-05-17T20:21:36.782Z,4.95
2018-05-17T20:24:04.298Z,5.47
2018-05-17T20:26:31.791Z,5.20
2018-05-17T20:28:59.374Z,5.80
2018-05-17T20:31:27.638Z,5.35
2018-05-17T20:33:55.899Z,5.00
2018-05-17T20:36:23.498Z,5.55
2018-05-17T20:38:51.033Z,6.37
2018-05-17T20:41:19.294Z,6.00
2018-05-17T20:43:46.778Z,5.20
2018-05-17T20:46:15.159Z,5.65
2018-05-17T20:48:42.718Z,4.93
2018-05-17T20:51:10.994Z,5.32
2018-05-17T20:53:39.307Z,5.83
2018-05-17T20:56:06.819Z,5.60
2018-05-17T20:58:35.107Z,5.93
2018-05-17T21:01:02.624Z,5.62
2018-05-17T21:03:30.126Z,5.28
2018-05-17T21:05:58.383Z,5.30
2018-05-17T21:08:26.656Z,5.40
2018-05-17T21:10:54.921Z,5.03
2018-05-17T21:13:22.422Z,5.57
2018-05-17T21:15:49.916Z,5.70
2018-05-17T21:18:17.412Z,5.62
2018-05-17T21:20:45.682Z,6.03
2018-05-17T21:23:13.954Z,5.60
2018-05-17T21:25:41.454Z,6.27
2018-05-17T21:28:08.967Z,5.78
2018-05-17T21:30:36.483Z,6.53
2018-05-17T21:33:03.982Z,5.07
2018-05-17T21:35:31.486Z,5.90
2018-05-17T21:37:58.996Z,5.03
2018-05-17T21:40:26.495Z,5.28
2018-05-17T21:42:54.030Z,6.30
2018-05-17T21:45:22.291Z,6.30
2018-05-17T21:47:50.566Z,5.25
2018-05-17T21:50:18.078Z,6.10
2018-05-17T21:52:45.582Z,5.60
2018-05-17T21:55:13.851Z,6.20
2018-05-17T21:57:41.374Z,5.80
2018-05-17T22:00:08.880Z,6.40
2018-05-17T22:02:37.155Z,6.07
2018-05-17T22:05:04.648Z,5.70
2018-05-17T22:07:32.234Z,5.70
2018-05-17T22:09:59.667Z,5.80
2018-05-17T22:12:27.167Z,6.15
2018-05-17T22:14:54.680Z,6.07
2018-05-17T22:17:22.190Z,5.55
2018-05-17T22:19:49.679Z,5.68
2018-05-17T22:22:17.951Z,6.10
2018-05-17T22:24:46.226Z,6.33
2018-05-17T22:27:14.487Z,5.63
2018-05-17T22:29:42.768Z,5.80
2018-05-17T22:32:11.029Z,5.65
2018-05-17T22:34:38.649Z,5.82
2018-05-17T22:37:06.192Z,6.40
2018-05-17T22:39:33.710Z,6.33
2018-05-17T22:42:01.299Z,6.03
2018-05-17T22:44:29.570Z,4.93
2018-05-17T22:46:57.835Z,5.78
2018-05-17T22:49:26.109Z,6.10
2018-05-17T22:51:54.578Z,6.17
2018-05-17T22:54:22.022Z,5.80
2018-05-17T22:57:01.284Z,5.57
2018-05-17T22:59:29.552Z,5.82
2018-05-17T23:01:57.940Z,5.50
2018-05-17T23:04:26.250Z,6.20
2018-05-17T23:06:53.743Z,6.10
2018-05-17T23:09:21.248Z,6.03
2018-05-17T23:11:49.527Z,6.18
2018-05-17T23:14:17.015Z,6.60
2018-05-17T23:16:44.514Z,6.68
2018-05-17T23:19:12.011Z,5.80
2018-05-17T23:21:39.566Z,5.50
2018-05-17T23:24:07.061Z,6.30
2018-05-17T23:26:34.599Z,7.00
2018-05-17T23:29:02.112Z,6.20
2018-05-17T23:31:29.613Z,6.25
2018-05-17T23:33:57.122Z,5.77
2018-05-17T23:36:24.621Z,6.40
2018-05-17T23:38:52.123Z,6.00
2018-05-17T23:41:31.486Z,6.12
2018-05-17T23:43:59.759Z,6.63
2018-05-17T23:46:28.017Z,6.10
2018-05-17T23:48:55.602Z,6.20
2018-05-17T23:51:23.882Z,6.40
2018-05-17T23:53:51.454Z,6.68
2018-05-17T23:56:18.899Z,6.60
2018-05-17T23:58:47.175Z,5.90
